CMB844 Details

Departure: Paya Lebar Airport (WSAP)
Arrival: Diego Garcia (FJDG)
Route: ASUNA R469 PKU N633 PIBED R212 GUDUG
Notes: USTRANSCOM CONTRACT FLIGHT


Current Weather Information
WSAP 252300Z 03004KT 9000 FEW018 BKN300 28/25 Q1010
FJDG 252255Z 00000KT 9999 FEW020 27/25 A2981 RMK SLP091 T02740253